Terminal Aerodrome Forecast
Issued by NWS

Home | Current Version | Previous Version | Text Only | Print | Product List | Glossary Off
Versions: 1 2 3 4 5 6 7 8 9 10 11 12 13 14 15 16 17 18 19 20 21 22 23 24 25 26 27

000
FTUS43 KGRB 021700
TAFRHI
TAF
KRHI 021723Z 0218/0318 24009G14KT P6SM SCT060
     FM030100 19006KT P6SM SCT100
     FM031300 21010G20KT P6SM SCT035 SCT060
      TEMPO 0314/0318 4SM TSRA OVC030CB=

USA.gov is the U.S. government's official web portal to all federal, state and local government web resources and services.